createdAt,value
2019-01-16T00:01:48.428Z,14.00
2019-01-16T00:04:36.484Z,15.70
2019-01-16T00:07:24.455Z,14.53
2019-01-16T00:10:19.748Z,12.50
2019-01-16T00:13:06.588Z,14.33
2019-01-16T00:15:55.760Z,20.20
2019-01-16T00:18:50.732Z,19.50
2019-01-16T00:21:40.588Z,11.97
2019-01-16T00:24:33.772Z,13.67
2019-01-16T00:27:33.979Z,13.53
2019-01-16T00:30:21.743Z,15.43
2019-01-16T00:33:05.260Z,18.90
2019-01-16T00:35:46.952Z,17.32
2019-01-16T00:38:40.176Z,21.50
2019-01-16T00:41:32.383Z,24.53
2019-01-16T00:44:25.211Z,15.83
2019-01-16T00:47:12.448Z,16.27
2019-01-16T00:50:01.224Z,17.17
2019-01-16T00:52:53.425Z,18.13
2019-01-16T00:55:45.660Z,19.93
2019-01-16T00:58:33.421Z,26.00
2019-01-16T01:01:20.491Z,16.73
2019-01-16T01:04:28.018Z,18.77
2019-01-16T01:07:20.264Z,19.77
2019-01-16T01:10:12.324Z,23.93
2019-01-16T01:12:57.963Z,17.70
2019-01-16T01:15:52.345Z,22.33
2019-01-16T01:18:40.881Z,20.13
2019-01-16T01:21:30.448Z,20.17
2019-01-16T01:24:08.462Z,23.93
2019-01-16T01:26:56.599Z,20.90
2019-01-16T01:29:36.576Z,18.23
2019-01-16T01:32:23.172Z,23.07
2019-01-16T01:35:18.253Z,22.53
2019-01-16T01:38:22.551Z,15.70
2019-01-16T01:41:24.027Z,20.37
2019-01-16T01:44:11.901Z,19.23
2019-01-16T01:46:52.735Z,19.17
2019-01-16T01:49:50.411Z,19.77
2019-01-16T01:52:39.002Z,21.53
2019-01-16T01:55:36.506Z,22.93
2019-01-16T01:58:18.825Z,15.63
2019-01-16T02:01:14.108Z,18.23
2019-01-16T02:04:06.423Z,26.73
2019-01-16T02:06:50.397Z,16.13
2019-01-16T02:09:45.630Z,21.87
2019-01-16T02:12:34.344Z,17.60
2019-01-16T02:15:37.453Z,13.47
2019-01-16T02:18:47.448Z,16.70
2019-01-16T02:21:35.892Z,19.97
2019-01-16T02:24:27.912Z,12.90
2019-01-16T02:27:13.403Z,21.00
2019-01-16T02:30:05.927Z,17.30
2019-01-16T02:33:01.144Z,18.80
2019-01-16T02:35:56.541Z,15.63
2019-01-16T02:38:35.520Z,16.57
2019-01-16T02:41:24.781Z,13.03
2019-01-16T02:44:22.888Z,14.97
2019-01-16T02:47:05.579Z,13.40
2019-01-16T02:49:58.081Z,16.60
2019-01-16T02:52:56.480Z,17.97
2019-01-16T02:55:45.728Z,22.97
2019-01-16T02:58:37.768Z,15.60
2019-01-16T03:01:25.496Z,15.10
2019-01-16T03:04:14.295Z,31.90
2019-01-16T03:07:02.885Z,21.87
2019-01-16T03:09:56.397Z,19.90
2019-01-16T03:12:54.916Z,15.53
2019-01-16T03:15:42.829Z,16.77
2019-01-16T03:18:32.283Z,16.03
2019-01-16T03:21:20.116Z,17.13
2019-01-16T03:24:10.600Z,19.20
2019-01-16T03:26:57.019Z,11.80
2019-01-16T03:29:43.724Z,13.07
2019-01-16T03:32:32.961Z,15.37
2019-01-16T03:35:18.560Z,21.67
2019-01-16T03:38:13.912Z,17.83
2019-01-16T03:41:07.336Z,21.50
2019-01-16T03:43:55.683Z,16.13
2019-01-16T03:47:03.053Z,19.47
2019-01-16T03:49:43.461Z,21.00
2019-01-16T03:52:38.423Z,14.67
2019-01-16T03:55:39.755Z,17.63
2019-01-16T03:58:22.435Z,11.37
2019-01-16T04:01:17.862Z,11.50
2019-01-16T04:04:05.448Z,15.63
2019-01-16T04:07:12.864Z,11.87
2019-01-16T04:10:08.380Z,18.13
2019-01-16T04:13:03.220Z,15.37
2019-01-16T04:16:04.432Z,13.80
2019-01-16T04:18:56.618Z,12.40
2019-01-16T04:21:45.881Z,18.33
2019-01-16T04:24:38.147Z,20.03
2019-01-16T04:27:30.404Z,15.77
2019-01-16T04:30:18.227Z,10.67
2019-01-16T04:33:13.519Z,12.47
2019-01-16T04:35:59.513Z,11.07
2019-01-16T04:38:57.515Z,12.20
2019-01-16T04:41:44.221Z,9.43
2019-01-16T04:44:32.292Z,19.27
2019-01-16T04:47:28.800Z,23.37
2019-01-16T04:50:16.664Z,9.90
2019-01-16T04:53:17.799Z,12.10
2019-01-16T04:56:07.081Z,11.27
2019-01-16T04:58:54.662Z,15.60
2019-01-16T05:01:58.527Z,17.00
2019-01-16T05:04:47.040Z,12.03
2019-01-16T05:07:35.128Z,16.70
2019-01-16T05:10:31.602Z,13.97
2019-01-16T05:13:19.230Z,9.57
2019-01-16T05:16:05.573Z,15.30
2019-01-16T05:18:53.596Z,17.73
2019-01-16T05:21:39.488Z,16.97
2019-01-16T05:24:27.415Z,14.57
2019-01-16T05:27:15.337Z,26.10
2019-01-16T05:30:03.124Z,17.57
2019-01-16T05:32:40.906Z,12.73
2019-01-16T05:35:29.161Z,19.00
2019-01-16T05:38:08.976Z,17.33
2019-01-16T05:41:01.280Z,19.57
2019-01-16T05:43:42.904Z,16.37
2019-01-16T05:46:31.036Z,12.20
2019-01-16T05:49:18.379Z,11.97
2019-01-16T05:52:22.907Z,15.13
2019-01-16T05:55:17.599Z,14.70
2019-01-16T05:58:05.597Z,16.17
2019-01-16T06:00:54.291Z,16.17
2019-01-16T06:03:43.444Z,16.87
2019-01-16T06:06:31.284Z,17.70
2019-01-16T06:09:23.464Z,15.07
2019-01-16T06:12:24.232Z,13.30
2019-01-16T06:15:24.772Z,15.73
2019-01-16T06:18:07.244Z,16.77
2019-01-16T06:20:52.695Z,13.27
2019-01-16T06:23:54.209Z,16.90
2019-01-16T06:26:42.863Z,18.23
2019-01-16T06:29:38.231Z,19.57
2019-01-16T06:32:20.788Z,21.13
2019-01-16T06:35:08.236Z,19.33
2019-01-16T06:38:06.233Z,19.10
2019-01-16T06:41:01.200Z,24.87
2019-01-16T06:43:47.944Z,21.53
2019-01-16T06:46:39.866Z,15.30
2019-01-16T06:49:20.744Z,23.00
2019-01-16T06:52:06.395Z,19.83
2019-01-16T06:55:10.228Z,12.73
2019-01-16T06:58:16.452Z,19.60
2019-01-16T07:00:57.899Z,20.70
2019-01-16T07:03:46.633Z,21.50
2019-01-16T07:06:32.412Z,21.27
2019-01-16T07:09:27.440Z,20.03
2019-01-16T07:12:12.580Z,23.43
2019-01-16T07:15:07.591Z,21.37
2019-01-16T07:17:49.380Z,19.20
2019-01-16T07:20:42.235Z,18.27
2019-01-16T07:23:30.368Z,25.33
2019-01-16T07:26:19.171Z,19.90
2019-01-16T07:29:22.740Z,21.23
2019-01-16T07:32:26.347Z,22.37
2019-01-16T07:35:15.526Z,22.10
2019-01-16T07:37:55.538Z,21.73
2019-01-16T07:40:42.712Z,26.77
2019-01-16T07:43:31.383Z,19.17
2019-01-16T07:46:20.520Z,24.70
2019-01-16T07:49:11.960Z,25.67
2019-01-16T07:51:59.827Z,14.77
2019-01-16T07:55:03.585Z,21.70
2019-01-16T07:57:58.911Z,24.67
2019-01-16T08:01:07.208Z,22.20
2019-01-16T08:03:54.536Z,17.40
2019-01-16T08:06:49.335Z,25.67
2019-01-16T08:09:25.481Z,18.90
2019-01-16T08:12:23.454Z,24.17
2019-01-16T08:15:09.125Z,14.57
2019-01-16T08:18:16.359Z,20.07
2019-01-16T08:21:11.959Z,22.43
2019-01-16T08:23:52.984Z,20.20
2019-01-16T08:26:41.733Z,27.60
2019-01-16T08:29:28.869Z,16.77
2019-01-16T08:32:13.112Z,25.90
2019-01-16T08:35:00.908Z,18.60
2019-01-16T08:37:42.455Z,20.07
2019-01-16T08:40:29.780Z,20.23
2019-01-16T08:43:10.848Z,17.87
2019-01-16T08:45:47.979Z,19.70
2019-01-16T08:48:45.736Z,25.90
2019-01-16T08:51:34.556Z,19.37
2019-01-16T08:54:29.859Z,35.40
2019-01-16T08:57:17.680Z,21.20
2019-01-16T09:00:15.960Z,22.00
2019-01-16T09:03:02.393Z,24.57
2019-01-16T09:05:56.192Z,21.43
2019-01-16T09:08:56.691Z,14.70
2019-01-16T09:11:57.852Z,23.30
2019-01-16T09:14:54.276Z,20.33
2019-01-16T09:17:46.575Z,26.17
2019-01-16T09:20:26.432Z,19.23
2019-01-16T09:23:33.461Z,20.63
2019-01-16T09:26:20.536Z,16.23
2019-01-16T09:29:21.847Z,17.53
2019-01-16T09:32:26.225Z,17.23
2019-01-16T09:35:07.741Z,21.20
2019-01-16T09:37:49.178Z,18.03
2019-01-16T09:40:36.384Z,14.53
2019-01-16T09:43:24.179Z,23.27
2019-01-16T09:46:12.096Z,17.97
2019-01-16T09:49:04.276Z,18.77
2019-01-16T09:51:47.879Z,22.30
2019-01-16T09:54:34.476Z,22.80
2019-01-16T09:57:33.183Z,25.30
2019-01-16T10:00:20.888Z,16.00
2019-01-16T10:03:11.539Z,19.07
2019-01-16T10:06:00.203Z,13.37
2019-01-16T10:08:54.834Z,23.43
2019-01-16T10:11:39.613Z,19.70
2019-01-16T10:14:27.420Z,16.80
2019-01-16T10:17:18.736Z,23.37
2019-01-16T10:20:02.289Z,28.83
2019-01-16T10:22:41.804Z,22.00
2019-01-16T10:25:30.923Z,19.17
2019-01-16T10:28:18.947Z,18.73
2019-01-16T10:31:15.475Z,25.07
2019-01-16T10:34:02.882Z,22.53
2019-01-16T10:36:50.652Z,20.63
2019-01-16T10:39:47.756Z,22.87
2019-01-16T10:42:46.192Z,21.10
2019-01-16T10:45:49.900Z,18.77
2019-01-16T10:48:37.904Z,18.07
2019-01-16T10:51:33.636Z,18.13
2019-01-16T10:54:41.033Z,23.67
2019-01-16T10:57:28.456Z,20.00
2019-01-16T11:00:35.511Z,22.43
2019-01-16T11:03:42.988Z,23.20
2019-01-16T11:06:40.715Z,20.30
2019-01-16T11:09:28.205Z,19.33
2019-01-16T11:12:15.482Z,19.17
2019-01-16T11:15:02.533Z,18.97
2019-01-16T11:18:00.100Z,25.77
2019-01-16T11:20:58.399Z,24.07
2019-01-16T11:23:46.467Z,16.27
2019-01-16T11:26:35.216Z,19.63
2019-01-16T11:29:39.504Z,25.90
2019-01-16T11:32:23.531Z,18.67
2019-01-16T11:35:21.908Z,20.33
2019-01-16T11:38:11.215Z,20.43
2019-01-16T11:40:58.946Z,22.17
2019-01-16T11:43:46.261Z,21.55
2019-01-16T11:46:25.691Z,19.90
2019-01-16T11:49:13.976Z,19.03
2019-01-16T11:52:05.993Z,19.63
2019-01-16T11:55:07.401Z,22.37
2019-01-16T11:58:02.619Z,22.47
2019-01-16T12:00:57.999Z,31.53
2019-01-16T12:03:53.060Z,18.73
2019-01-16T12:06:29.993Z,19.10
2019-01-16T12:09:15.431Z,16.70
2019-01-16T12:12:03.564Z,24.17
2019-01-16T12:14:51.751Z,27.10
2019-01-16T12:17:39.948Z,21.20
2019-01-16T12:20:22.575Z,22.20
2019-01-16T12:23:08.356Z,20.70
2019-01-16T12:25:56.210Z,17.37
2019-01-16T12:28:41.697Z,23.42
2019-01-16T12:31:18.371Z,28.70
2019-01-16T12:34:07.520Z,22.60
2019-01-16T12:36:54.850Z,20.63
2019-01-16T12:39:40.328Z,18.70
2019-01-16T12:42:17.483Z,21.97
2019-01-16T12:45:07.149Z,28.30
2019-01-16T12:47:58.881Z,21.73
2019-01-16T12:50:46.219Z,22.90
2019-01-16T12:53:34.792Z,28.43
2019-01-16T12:56:27.184Z,23.87
2019-01-16T12:59:07.161Z,18.17
2019-01-16T13:02:08.189Z,21.57
2019-01-16T13:04:56.296Z,24.23
2019-01-16T13:08:04.224Z,20.57
2019-01-16T13:10:45.108Z,25.07
2019-01-16T13:13:30.731Z,21.43
2019-01-16T13:16:18.181Z,25.27
2019-01-16T13:19:06.280Z,16.87
2019-01-16T13:22:07.225Z,23.47
2019-01-16T13:25:05.469Z,17.03
2019-01-16T13:27:53.640Z,22.50
2019-01-16T13:30:55.270Z,25.47
2019-01-16T13:33:46.288Z,25.80
2019-01-16T13:36:38.048Z,19.57
2019-01-16T13:39:27.464Z,22.80
2019-01-16T13:42:28.888Z,20.23
2019-01-16T13:45:16.292Z,20.17
2019-01-16T13:48:03.596Z,24.83
2019-01-16T13:51:08.145Z,15.73
2019-01-16T13:54:07.857Z,26.75
2019-01-16T13:57:08.687Z,21.57
2019-01-16T13:59:57.878Z,16.97
2019-01-16T14:02:49.592Z,20.43
2019-01-16T14:05:44.352Z,21.50
2019-01-16T14:08:48.137Z,24.23
2019-01-16T14:11:27.698Z,27.00
2019-01-16T14:14:28.207Z,26.80
2019-01-16T14:17:15.601Z,26.40
2019-01-16T14:19:59.620Z,26.20
2019-01-16T14:22:44.695Z,29.20
2019-01-16T14:25:37.036Z,28.30
2019-01-16T14:28:28.835Z,29.43
2019-01-16T14:31:35.931Z,27.53
2019-01-16T14:34:42.904Z,24.67
2019-01-16T14:37:30.488Z,29.13
2019-01-16T14:40:19.193Z,26.60
2019-01-16T14:43:07.667Z,24.37
2019-01-16T14:46:15.081Z,25.88
2019-01-16T14:49:13.016Z,25.40
2019-01-16T14:52:08.895Z,27.70
2019-01-16T14:55:09.773Z,30.50
2019-01-16T14:57:58.924Z,24.00
2019-01-16T15:00:52.753Z,27.15
2019-01-16T15:03:40.309Z,22.90
2019-01-16T15:06:31.698Z,28.93
2019-01-16T15:09:33.677Z,29.27
2019-01-16T15:12:21.072Z,39.67
2019-01-16T15:15:21.803Z,26.67
2019-01-16T15:18:08.899Z,43.47
2019-01-16T15:21:06.312Z,31.53
2019-01-16T15:23:53.876Z,28.60
2019-01-16T15:26:38.376Z,28.60
2019-01-16T15:29:26.220Z,23.10
2019-01-16T15:32:05.749Z,34.93
2019-01-16T15:35:10.097Z,27.60
2019-01-16T15:37:58.786Z,27.37
2019-01-16T15:41:00.244Z,29.57
2019-01-16T15:43:47.524Z,34.70
2019-01-16T15:46:41.291Z,33.10
2019-01-16T15:49:39.165Z,30.33
2019-01-16T15:52:32.208Z,28.73
2019-01-16T15:55:23.268Z,29.33
2019-01-16T15:58:11.357Z,34.77
2019-01-16T16:01:00.615Z,25.60
2019-01-16T16:03:42.128Z,24.27
2019-01-16T16:06:39.867Z,25.33
2019-01-16T16:09:32.003Z,19.57
2019-01-16T16:12:20.689Z,19.83
2019-01-16T16:15:00.519Z,23.20
2019-01-16T16:17:55.422Z,22.40
2019-01-16T16:20:30.488Z,19.00
2019-01-16T16:23:08.661Z,26.67
2019-01-16T16:25:56.843Z,22.37
2019-01-16T16:28:39.539Z,20.92
2019-01-16T16:31:32.784Z,24.33
2019-01-16T16:34:39.809Z,27.63
2019-01-16T16:37:28.950Z,25.67
2019-01-16T16:40:17.719Z,26.40
2019-01-16T16:43:01.954Z,26.70
2019-01-16T16:45:50.575Z,33.23
2019-01-16T16:48:41.937Z,32.87
2019-01-16T16:51:29.515Z,25.67
2019-01-16T16:54:19.107Z,35.97
2019-01-16T16:57:08.557Z,22.33
2019-01-16T16:59:56.722Z,23.23
2019-01-16T17:02:50.847Z,30.23
2019-01-16T17:05:38.860Z,28.53
2019-01-16T17:08:27.563Z,25.23
2019-01-16T17:11:12.676Z,25.87
2019-01-16T17:13:59.943Z,19.40
2019-01-16T17:16:47.492Z,26.40
2019-01-16T17:19:30.656Z,22.17
2019-01-16T17:22:17.644Z,19.57
2019-01-16T17:25:05.760Z,23.97
2019-01-16T17:27:57.543Z,22.33
2019-01-16T17:30:45.792Z,17.43
2019-01-16T17:33:33.552Z,8.93
2019-01-16T17:36:20.891Z,2.80
2019-01-16T17:39:15.373Z,2.33
2019-01-16T17:42:03.956Z,3.33
2019-01-16T17:45:06.464Z,4.47
2019-01-16T17:47:50.948Z,4.00
2019-01-16T17:50:42.356Z,3.17
2019-01-16T17:53:29.387Z,1.90
2019-01-16T17:56:24.111Z,2.10
2019-01-16T17:59:31.574Z,2.67
2019-01-16T18:02:20.530Z,3.13
2019-01-16T18:05:08.135Z,2.57
2019-01-16T18:07:59.106Z,2.97
2019-01-16T18:10:57.080Z,3.77
2019-01-16T18:13:39.843Z,4.77
2019-01-16T18:16:35.156Z,3.23
2019-01-16T18:19:24.704Z,3.92
2019-01-16T18:22:13.436Z,3.00
2019-01-16T18:25:01.524Z,3.10
2019-01-16T18:27:49.589Z,2.47
2019-01-16T18:30:47.847Z,4.50
2019-01-16T18:33:52.455Z,2.67
2019-01-16T18:36:51.013Z,2.40
2019-01-16T18:39:28.433Z,3.73
2019-01-16T18:42:16.569Z,1.57
2019-01-16T18:45:04.820Z,1.90
2019-01-16T18:48:11.776Z,1.20
2019-01-16T18:51:06.312Z,2.00
2019-01-16T18:53:53.401Z,1.77
2019-01-16T18:56:41.076Z,2.50
2019-01-16T18:59:29.661Z,1.77
2019-01-16T19:02:18.821Z,2.20
2019-01-16T19:05:11.083Z,1.97
2019-01-16T19:07:58.572Z,1.90
2019-01-16T19:10:41.749Z,1.53
2019-01-16T19:13:30.445Z,2.40
2019-01-16T19:16:16.953Z,1.07
2019-01-16T19:19:24.173Z,1.13
2019-01-16T19:22:16.254Z,2.50
2019-01-16T19:25:16.876Z,2.33
2019-01-16T19:28:17.518Z,3.50
2019-01-16T19:31:05.363Z,1.80
2019-01-16T19:33:58.092Z,1.37
2019-01-16T19:36:45.872Z,1.17
2019-01-16T19:39:46.541Z,0.97
2019-01-16T19:42:37.997Z,1.67
2019-01-16T19:45:38.864Z,1.30
2019-01-16T19:48:27.517Z,0.72
2019-01-16T19:51:19.092Z,3.07
2019-01-16T19:53:57.143Z,0.70
2019-01-16T19:56:44.831Z,0.40
2019-01-16T19:59:32.877Z,1.83
2019-01-16T20:02:21.012Z,0.60
2019-01-16T20:05:12.736Z,1.10
2019-01-16T20:08:03.665Z,1.10
2019-01-16T20:10:41.990Z,1.20
2019-01-16T20:13:18.972Z,1.20
2019-01-16T20:16:06.640Z,2.03
2019-01-16T20:18:50.168Z,1.83
2019-01-16T20:21:56.815Z,2.50
2019-01-16T20:24:44.589Z,2.13
2019-01-16T20:27:33.851Z,3.07
2019-01-16T20:30:21.338Z,2.67
2019-01-16T20:33:18.732Z,3.37
2019-01-16T20:36:00.356Z,3.33
2019-01-16T20:38:47.848Z,6.03
2019-01-16T20:41:46.457Z,2.50
2019-01-16T20:44:41.201Z,3.30
2019-01-16T20:47:26.540Z,3.03
2019-01-16T20:50:22.282Z,4.50
2019-01-16T20:53:19.815Z,5.87
2019-01-16T20:56:18.193Z,2.67
2019-01-16T20:59:10.572Z,6.43
2019-01-16T21:02:10.857Z,4.43
2019-01-16T21:04:59.583Z,4.00
2019-01-16T21:07:48.185Z,2.47
2019-01-16T21:10:36.802Z,10.83
2019-01-16T21:13:20.856Z,9.03
2019-01-16T21:16:09.559Z,4.63
2019-01-16T21:18:58.166Z,5.10
2019-01-16T21:21:47.347Z,6.53
2019-01-16T21:24:51.360Z,6.37
2019-01-16T21:27:40.046Z,6.57
2019-01-16T21:30:33.296Z,9.70
2019-01-16T21:33:40.508Z,6.80
2019-01-16T21:36:35.036Z,6.70
2019-01-16T21:39:25.296Z,8.03
2019-01-16T21:42:13.871Z,8.43
2019-01-16T21:45:02.493Z,9.20
2019-01-16T21:47:51.084Z,8.47
2019-01-16T21:50:44.484Z,12.93
2019-01-16T21:53:36.211Z,11.17
2019-01-16T21:56:40.708Z,10.90
2019-01-16T21:59:29.947Z,18.43
2019-01-16T22:02:22.235Z,8.93
2019-01-16T22:05:16.887Z,13.37
2019-01-16T22:08:20.952Z,15.60
2019-01-16T22:11:14.602Z,16.40
2019-01-16T22:14:06.097Z,6.47
2019-01-16T22:16:57.448Z,9.17
2019-01-16T22:20:04.789Z,10.27
2019-01-16T22:23:08.516Z,10.58
2019-01-16T22:26:03.312Z,14.40
2019-01-16T22:28:50.768Z,7.77
2019-01-16T22:31:40.762Z,9.00
2019-01-16T22:34:38.988Z,12.27
2019-01-16T22:37:20.255Z,10.90
2019-01-16T22:40:15.451Z,14.30
2019-01-16T22:43:04.292Z,12.47
2019-01-16T22:45:45.855Z,7.07
2019-01-16T22:48:53.388Z,12.87
2019-01-16T22:51:40.623Z,2.67
2019-01-16T22:54:25.571Z,5.87
2019-01-16T22:57:06.099Z,8.50
2019-01-16T22:59:53.864Z,10.15
2019-01-16T23:02:42.433Z,4.27
2019-01-16T23:05:30.551Z,8.63
2019-01-16T23:08:25.587Z,7.80
2019-01-16T23:11:27.123Z,6.50
2019-01-16T23:14:15.747Z,9.03
2019-01-16T23:17:08.148Z,10.23
2019-01-16T23:20:02.332Z,5.60
2019-01-16T23:23:02.212Z,8.80
2019-01-16T23:25:50.199Z,14.40
2019-01-16T23:28:43.176Z,13.17
2019-01-16T23:31:41.547Z,4.43
2019-01-16T23:34:18.963Z,10.93
2019-01-16T23:37:08.180Z,6.00
2019-01-16T23:39:57.404Z,9.83
2019-01-16T23:42:49.395Z,4.97
2019-01-16T23:45:47.092Z,8.60
2019-01-16T23:48:42.276Z,5.50
2019-01-16T23:51:37.627Z,9.37
2019-01-16T23:54:25.459Z,11.00
2019-01-16T23:57:14.719Z,6.87
